createdAt,value
2018-08-09T00:01:06.408Z,27.09
2018-08-09T00:02:16.495Z,27.09
2018-08-09T00:03:26.578Z,27.06
2018-08-09T00:04:36.658Z,27.08
2018-08-09T00:05:46.737Z,27
2018-08-09T00:06:56.301Z,27.01
2018-08-09T00:08:06.378Z,27.04
2018-08-09T00:09:16.479Z,27.08
2018-08-09T00:10:26.614Z,27.06
2018-08-09T00:11:36.706Z,27
2018-08-09T00:12:46.780Z,27.06
2018-08-09T00:13:56.583Z,27.06
2018-08-09T00:15:06.673Z,27.13
2018-08-09T00:16:16.550Z,27.09
2018-08-09T00:17:26.628Z,27.11
2018-08-09T00:18:36.464Z,27.15
2018-08-09T00:19:46.540Z,27.09
2018-08-09T00:20:56.628Z,27.15
2018-08-09T00:22:06.761Z,27.18
2018-08-09T00:23:16.849Z,27.21
2018-08-09T00:24:26.930Z,27.21
2018-08-09T00:25:37.016Z,27.18
2018-08-09T00:26:46.846Z,27.21
2018-08-09T00:27:56.987Z,27.28
2018-08-09T00:29:07.081Z,27.21
2018-08-09T00:30:17.159Z,27.27
2018-08-09T00:31:26.986Z,27.3
2018-08-09T00:32:36.542Z,27.27
2018-08-09T00:33:46.375Z,27.28
2018-08-09T00:34:56.203Z,27.27
2018-08-09T00:36:06.302Z,27.19
2018-08-09T00:37:16.391Z,27.11
2018-08-09T00:38:26.488Z,27.13
2018-08-09T00:39:36.625Z,27.11
2018-08-09T00:40:46.432Z,27.09
2018-08-09T00:41:56.239Z,27.11
2018-08-09T00:43:06.322Z,27.06
2018-08-09T00:44:16.428Z,27.05
2018-08-09T00:45:26.248Z,27.05
2018-08-09T00:46:36.332Z,27.06
2018-08-09T00:47:46.469Z,27.05
2018-08-09T00:48:56.556Z,27.01
2018-08-09T00:50:06.635Z,27.01
2018-08-09T00:51:16.761Z,27.15
2018-08-09T00:52:26.880Z,27.01
2018-08-09T00:53:36.942Z,27.05
2018-08-09T00:54:47.050Z,27.08
2018-08-09T00:55:57.123Z,27.05
2018-08-09T00:57:07.221Z,27.05
2018-08-09T00:58:17.289Z,27.08
2018-08-09T00:59:27.383Z,27.08
2018-08-09T01:00:37.469Z,27.05
2018-08-09T01:01:47.296Z,27.09
2018-08-09T01:02:57.392Z,27.08
2018-08-09T01:04:07.481Z,27.06
2018-08-09T01:05:17.558Z,27.08
2018-08-09T01:06:27.640Z,27.05
2018-08-09T01:07:37.454Z,27.06
2018-08-09T01:08:47.281Z,27.06
2018-08-09T01:09:57.370Z,27.08
2018-08-09T01:11:07.447Z,27.05
2018-08-09T01:12:17.268Z,27.08
2018-08-09T01:13:27.349Z,27.05
2018-08-09T01:14:37.443Z,26.99
2018-08-09T01:15:47.013Z,27.12
2018-08-09T01:16:57.086Z,27.09
2018-08-09T01:18:06.912Z,27.12
2018-08-09T01:19:16.995Z,27.12
2018-08-09T01:20:27.137Z,27.09
2018-08-09T01:21:37.227Z,27.06
2018-08-09T01:22:47.281Z,27.11
2018-08-09T01:23:57.371Z,27.19
2018-08-09T01:25:07.211Z,27.27
2018-08-09T01:26:17.039Z,27.24
2018-08-09T01:27:26.855Z,27.28
2018-08-09T01:28:36.940Z,27.3
2018-08-09T01:29:47.003Z,27.33
2018-08-09T01:30:57.068Z,27.36
2018-08-09T01:32:07.194Z,27.36
2018-08-09T01:33:17.009Z,27.38
2018-08-09T01:34:26.578Z,27.38
2018-08-09T01:35:36.678Z,27.33
2018-08-09T01:36:46.767Z,27.37
2018-08-09T01:37:56.914Z,27.33
2018-08-09T01:39:07.024Z,27.31
2018-08-09T01:40:17.101Z,27.33
2018-08-09T01:41:27.178Z,27.31
2018-08-09T01:42:37.010Z,27.33
2018-08-09T01:43:47.087Z,27.38
2018-08-09T01:44:56.902Z,27.33
2018-08-09T01:46:06.981Z,27.38
2018-08-09T01:47:16.808Z,27.33
2018-08-09T01:48:26.897Z,27.28
2018-08-09T01:49:36.958Z,27.34
2018-08-09T01:50:46.505Z,27.31
2018-08-09T01:51:56.587Z,27.36
2018-08-09T01:53:06.681Z,27.3
2018-08-09T01:54:16.506Z,27.23
2018-08-09T01:55:26.583Z,27.28
2018-08-09T01:56:36.678Z,27.26
2018-08-09T01:57:46.496Z,27.26
2018-08-09T01:58:56.304Z,27.19
2018-08-09T02:00:06.126Z,27.21
2018-08-09T02:01:16.218Z,27.21
2018-08-09T02:02:25.773Z,27.12
2018-08-09T02:03:35.863Z,27.16
2018-08-09T02:04:45.964Z,27.15
2018-08-09T02:05:56.461Z,27.13
2018-08-09T02:07:06.570Z,27.16
2018-08-09T02:08:16.656Z,27.11
2018-08-09T02:09:26.733Z,27.12
2018-08-09T02:10:36.817Z,27.15
2018-08-09T02:11:46.915Z,27.12
2018-08-09T02:12:56.988Z,27.16
2018-08-09T02:14:07.046Z,27.13
2018-08-09T02:15:17.138Z,27.13
2018-08-09T02:16:26.942Z,27.11
2018-08-09T02:17:36.750Z,27.12
2018-08-09T02:18:46.824Z,27.09
2018-08-09T02:19:56.947Z,27.12
2018-08-09T02:21:07.045Z,27.21
2018-08-09T02:22:17.173Z,27.16
2018-08-09T02:23:26.993Z,27.18
2018-08-09T02:24:36.870Z,27.16
2018-08-09T02:25:46.946Z,27.13
2018-08-09T02:26:57.029Z,27.12
2018-08-09T02:28:07.113Z,27.09
2018-08-09T02:29:17.172Z,27.11
2018-08-09T02:30:27.005Z,27.15
2018-08-09T02:31:37.101Z,27.11
2018-08-09T02:32:46.910Z,27.11
2018-08-09T02:33:56.995Z,27.11
2018-08-09T02:35:07.070Z,27.05
2018-08-09T02:36:16.898Z,27
2018-08-09T02:37:26.997Z,26.99
2018-08-09T02:38:36.811Z,26.97
2018-08-09T02:39:46.886Z,26.97
2018-08-09T02:40:56.953Z,26.96
2018-08-09T02:42:07.032Z,26.96
2018-08-09T02:43:17.129Z,26.97
2018-08-09T02:44:27.221Z,26.96
2018-08-09T02:45:37.049Z,26.96
2018-08-09T02:46:46.679Z,26.96
2018-08-09T02:47:56.975Z,26.99
2018-08-09T02:49:06.802Z,27
2018-08-09T02:50:16.884Z,26.97
2018-08-09T02:51:26.987Z,27
2018-08-09T02:52:36.813Z,26.96
2018-08-09T02:53:46.643Z,26.93
2018-08-09T02:54:56.720Z,26.84
2018-08-09T02:56:06.897Z,26.81
2018-08-09T02:57:16.984Z,26.78
2018-08-09T02:58:26.805Z,26.71
2018-08-09T02:59:36.969Z,26.72
2018-08-09T03:00:47.057Z,26.61
2018-08-09T03:01:57.151Z,26.67
2018-08-09T03:35:07.788Z,23.87
2018-08-09T03:36:17.857Z,23.81
2018-08-09T03:37:27.925Z,23.82
2018-08-09T03:38:37.984Z,23.79
2018-08-09T03:39:48.081Z,23.75
2018-08-09T03:40:57.936Z,23.81
2018-08-09T03:42:07.744Z,23.9
2018-08-09T03:43:17.812Z,23.9
2018-08-09T03:44:27.634Z,24.03
2018-08-09T03:45:37.694Z,24.03
2018-08-09T03:46:47.757Z,24.18
2018-08-09T03:47:57.828Z,24.21
2018-08-09T03:49:07.375Z,24.4
2018-08-09T03:50:17.178Z,24.44
2018-08-09T03:51:27.258Z,24.46
2018-08-09T03:52:37.385Z,24.63
2018-08-09T03:53:47.468Z,24.71
2018-08-09T03:54:57.281Z,24.83
2018-08-09T03:56:07.362Z,24.87
2018-08-09T03:57:17.179Z,24.89
2018-08-09T03:58:27.461Z,25.07
2018-08-09T03:59:37.621Z,25.15
2018-08-09T04:00:47.636Z,25.11
2018-08-09T04:01:57.456Z,25.29
2018-08-09T04:03:07.530Z,25.37
2018-08-09T04:04:17.616Z,25.45
2018-08-09T04:05:27.712Z,25.49
2018-08-09T04:06:37.797Z,25.57
2018-08-09T04:07:47.849Z,25.59
2018-08-09T04:08:57.920Z,25.6
2018-08-09T04:10:08.051Z,25.69
2018-08-09T04:11:17.614Z,25.78
2018-08-09T04:12:27.735Z,25.84
2018-08-09T04:13:37.941Z,25.84
2018-08-09T04:14:48.100Z,25.86
2018-08-09T04:15:57.911Z,25.91
2018-08-09T04:17:07.730Z,25.96
2018-08-09T04:18:17.854Z,26.03
2018-08-09T04:19:27.669Z,26
2018-08-09T04:20:37.755Z,26
2018-08-09T04:21:47.841Z,26.03
2018-08-09T04:22:57.917Z,26.09
2018-08-09T04:24:07.977Z,26.12
2018-08-09T04:25:17.543Z,26.19
2018-08-09T04:26:27.697Z,26.31
2018-08-09T04:27:37.917Z,26.27
2018-08-09T04:28:47.989Z,26.45
2018-08-09T04:29:57.541Z,26.39
2018-08-09T04:31:07.611Z,26.57
2018-08-09T04:32:17.700Z,26.67
2018-08-09T04:33:28.029Z,26.63
2018-08-09T04:34:38.101Z,26.78
2018-08-09T04:35:48.183Z,26.99
2018-08-09T04:36:58.300Z,27.13
2018-08-09T04:38:08.666Z,27.28
2018-08-09T04:39:18.539Z,27.34
2018-08-09T04:40:28.602Z,27.53
2018-08-09T04:41:38.677Z,27.64
2018-08-09T04:42:48.775Z,27.76
2018-08-09T04:43:58.588Z,27.89
2018-08-09T04:45:08.677Z,27.98
2018-08-09T04:46:18.494Z,28.06
2018-08-09T04:47:28.321Z,28.12
2018-08-09T04:48:38.410Z,28.31
2018-08-09T04:49:48.500Z,28.63
2018-08-09T04:50:58.601Z,29.2
2018-08-09T04:52:08.425Z,29.72
2018-08-09T04:53:18.500Z,30.49
2018-08-09T04:54:28.327Z,31.37
2018-08-09T04:55:38.410Z,31.75
2018-08-09T04:56:48.216Z,32.08
2018-08-09T04:57:58.357Z,31.75
2018-08-09T04:59:08.292Z,31.4
2018-08-09T05:00:18.398Z,30.82
2018-08-09T05:01:28.473Z,30.47
2018-08-09T05:02:38.564Z,30.28
2018-08-09T05:03:48.649Z,30.09
2018-08-09T05:04:58.458Z,30.14
2018-08-09T05:06:08.533Z,30.91
2018-08-09T05:07:18.611Z,31.82
2018-08-09T05:08:28.693Z,32.37
2018-08-09T05:09:38.772Z,32.84
2018-08-09T05:10:48.647Z,33.21
2018-08-09T05:11:58.727Z,33.52
2018-08-09T05:13:08.809Z,33.75
2018-08-09T05:14:18.608Z,33.81
2018-08-09T05:15:28.675Z,34.06
2018-08-09T05:16:38.816Z,34.05
2018-08-09T05:17:48.901Z,33.89
2018-08-09T05:18:58.970Z,33.73
2018-08-09T05:20:09.044Z,33.48
2018-08-09T05:21:19.121Z,33.36
2018-08-09T05:22:29.218Z,33.44
2018-08-09T05:23:39.040Z,33.75
2018-08-09T05:24:48.857Z,33.99
2018-08-09T05:25:58.685Z,34.19
2018-08-09T05:27:08.765Z,34.41
2018-08-09T05:28:18.582Z,34.66
2018-08-09T05:29:28.388Z,34.9
2018-08-09T05:30:38.469Z,34.96
2018-08-09T05:31:48.545Z,35.08
2018-08-09T05:32:58.620Z,35.2
2018-08-09T05:34:08.264Z,35.35
2018-08-09T05:35:18.463Z,35.46
2018-08-09T05:36:28.550Z,35.53
2018-08-09T05:37:38.636Z,35.52
2018-08-09T05:38:48.738Z,35.57
2018-08-09T05:39:58.819Z,35.57
2018-08-09T05:41:08.911Z,35.53
2018-08-09T05:42:18.998Z,35.53
2018-08-09T05:43:29.063Z,35.55
2018-08-09T05:44:38.890Z,35.61
2018-08-09T05:45:48.972Z,35.55
2018-08-09T05:46:59.055Z,35.57
2018-08-09T05:48:09.164Z,35.58
2018-08-09T05:49:18.976Z,35.53
2018-08-09T05:50:29.064Z,35.42
2018-08-09T05:51:39.152Z,35.16
2018-08-09T05:52:49.788Z,35.04
2018-08-09T05:54:00.308Z,35.01
2018-08-09T05:55:10.120Z,34.84
2018-08-09T05:56:20.203Z,34.91
2018-08-09T05:57:30.014Z,35.05
2018-08-09T05:58:40.110Z,35.26
2018-08-09T05:59:49.939Z,35.24
2018-08-09T06:00:59.757Z,35.33
2018-08-09T06:02:09.827Z,35.26
2018-08-09T06:03:19.941Z,34.79
2018-08-09T06:04:29.465Z,34.15
2018-08-09T06:05:39.681Z,33.73
2018-08-09T06:06:49.603Z,33.37
2018-08-09T06:07:59.169Z,33.16
2018-08-09T06:09:09.244Z,32.83
2018-08-09T06:10:19.319Z,32.65
2018-08-09T06:11:29.402Z,32.46
2018-08-09T06:12:38.978Z,32.3
2018-08-09T06:13:49.067Z,32.31
2018-08-09T06:14:59.142Z,32.25
2018-08-09T06:16:09.031Z,32.24
2018-08-09T06:17:19.171Z,32.19
2018-08-09T06:18:29.008Z,32.06
2018-08-09T06:19:39.089Z,32.13
2018-08-09T06:20:48.634Z,32.05
2018-08-09T06:21:58.713Z,32.12
2018-08-09T06:23:08.799Z,32.12
2018-08-09T06:24:18.880Z,32.23
2018-08-09T06:25:28.956Z,32.09
2018-08-09T06:26:39.256Z,32.13
2018-08-09T06:27:49.584Z,32.17
2018-08-09T06:28:59.663Z,32.17
2018-08-09T06:30:09.757Z,32.19
2018-08-09T06:31:19.871Z,32.16
2018-08-09T06:32:29.946Z,32.27
2018-08-09T06:33:40.200Z,32.17
2018-08-09T06:34:50.289Z,32.16
2018-08-09T06:36:00.385Z,32.09
2018-08-09T06:37:10.474Z,32.09
2018-08-09T06:38:20.549Z,31.97
2018-08-09T06:39:30.655Z,31.94
2018-08-09T06:40:40.506Z,31.88
2018-08-09T06:41:50.318Z,31.82
2018-08-09T06:42:59.869Z,31.86
2018-08-09T06:44:09.970Z,31.8
2018-08-09T06:45:19.775Z,31.94
2018-08-09T06:46:29.598Z,31.93
2018-08-09T06:47:39.570Z,32
2018-08-09T06:48:49.940Z,31.93
2018-08-09T06:50:00.038Z,31.82
2018-08-09T06:51:10.104Z,31.86
2018-08-09T06:52:20.196Z,31.9
2018-08-09T06:53:30.271Z,31.86
2018-08-09T06:54:40.081Z,31.97
2018-08-09T06:55:50.173Z,31.94
2018-08-09T06:57:00.242Z,31.94
2018-08-09T06:58:10.313Z,31.95
2018-08-09T06:59:20.419Z,31.9
2018-08-09T07:00:29.975Z,31.98
2018-08-09T07:01:39.862Z,31.95
2018-08-09T07:02:49.960Z,32.03
2018-08-09T07:04:00.038Z,32.01
2018-08-09T07:05:10.108Z,32.03
2018-08-09T07:06:19.939Z,32.1
2018-08-09T07:07:30.016Z,32.16
2018-08-09T07:08:40.100Z,32.16
2018-08-09T07:09:50.180Z,32.16
2018-08-09T07:11:00.261Z,32.15
2018-08-09T07:12:10.351Z,32.19
2018-08-09T07:13:20.483Z,32.34
2018-08-09T07:14:30.309Z,32.37
2018-08-09T07:15:40.121Z,32.34
2018-08-09T07:16:50.199Z,32.35
2018-08-09T07:18:00.025Z,32.5
2018-08-09T07:19:09.857Z,32.56
2018-08-09T07:20:19.755Z,32.59
2018-08-09T07:21:30.024Z,32.69
2018-08-09T07:22:40.098Z,32.67
2018-08-09T07:23:49.915Z,32.8
2018-08-09T07:24:59.733Z,32.91
2018-08-09T07:26:09.551Z,32.96
2018-08-09T07:27:19.618Z,32.98
2018-08-09T07:28:29.714Z,32.98
2018-08-09T07:29:39.821Z,33.03
2018-08-09T07:30:49.886Z,33.12
2018-08-09T07:31:59.965Z,33.2
2018-08-09T07:33:10.070Z,33.12
2018-08-09T07:34:20.131Z,33.13
2018-08-09T07:35:29.949Z,33.2
2018-08-09T07:36:40.247Z,33.16
2018-08-09T07:37:50.081Z,33.23
2018-08-09T07:39:00.155Z,33.18
2018-08-09T07:40:10.004Z,33.21
2018-08-09T07:41:19.569Z,33.2
2018-08-09T07:42:29.676Z,33.18
2018-08-09T07:43:39.753Z,33.21
2018-08-09T07:44:49.834Z,33.16
2018-08-09T07:45:59.914Z,33.16
2018-08-09T07:47:09.737Z,33.23
2018-08-09T07:48:19.850Z,33.21
2018-08-09T07:49:30.051Z,33.24
2018-08-09T07:50:39.625Z,33.34
2018-08-09T07:51:49.739Z,33.44
2018-08-09T07:52:59.812Z,33.56
2018-08-09T07:54:09.391Z,33.56
2018-08-09T07:55:19.509Z,33.65
2018-08-09T07:56:29.596Z,33.59
2018-08-09T07:57:39.689Z,33.58
2018-08-09T07:58:49.509Z,33.62
2018-08-09T07:59:59.364Z,33.63
2018-08-09T08:01:09.473Z,33.56
2018-08-09T08:02:19.282Z,33.58
2018-08-09T08:03:29.361Z,33.65
2018-08-09T08:04:39.184Z,33.74
2018-08-09T08:05:49.427Z,33.85
2018-08-09T08:06:59.805Z,33.89
2018-08-09T08:08:09.889Z,33.93
2018-08-09T08:09:19.965Z,34
2018-08-09T08:10:30.053Z,34.02
2018-08-09T08:11:40.132Z,34.08
2018-08-09T08:12:50.209Z,34.06
2018-08-09T08:14:00.323Z,33.93
2018-08-09T08:15:10.715Z,33.99
2018-08-09T08:16:20.605Z,33.92
2018-08-09T08:17:30.800Z,33.96
2018-08-09T08:18:40.888Z,33.85
2018-08-09T08:19:50.980Z,33.83
2018-08-09T08:21:01.071Z,33.9
2018-08-09T08:22:11.214Z,33.99
2018-08-09T08:23:21.291Z,34
2018-08-09T08:24:31.402Z,34.1
2018-08-09T08:25:41.541Z,34.08
2018-08-09T08:26:51.816Z,34.24
2018-08-09T08:28:01.916Z,34.32
2018-08-09T08:29:11.766Z,34.32
2018-08-09T08:30:21.857Z,34.3
2018-08-09T08:31:31.976Z,34.37
2018-08-09T08:32:41.807Z,34.45
2018-08-09T08:33:51.892Z,34.46
2018-08-09T08:35:01.710Z,34.51
2018-08-09T08:36:11.839Z,34.63
2018-08-09T08:37:21.947Z,34.64
2018-08-09T08:38:31.784Z,34.75
2018-08-09T08:39:41.589Z,34.77
2018-08-09T08:40:51.411Z,34.89
2018-08-09T08:42:01.521Z,34.79
2018-08-09T08:43:11.599Z,34.83
2018-08-09T08:44:21.421Z,34.84
2018-08-09T08:45:31.249Z,34.9
2018-08-09T08:46:41.070Z,34.89
2018-08-09T08:47:50.913Z,34.93
2018-08-09T08:49:01.011Z,34.9
2018-08-09T08:50:17.711Z,34.93
2018-08-09T08:51:27.846Z,35.04
2018-08-09T08:52:37.943Z,35.04
2018-08-09T08:53:48.034Z,35.11
2018-08-09T08:54:58.143Z,35.16
2018-08-09T08:56:08.350Z,35.26
2018-08-09T08:57:18.429Z,35.23
2018-08-09T08:58:28.572Z,35.18
2018-08-09T08:59:38.411Z,35.28
2018-08-09T09:00:48.579Z,35.3
2018-08-09T09:01:58.877Z,35.34
2018-08-09T09:03:09.072Z,35.39
2018-08-09T09:04:19.183Z,35.39
2018-08-09T09:05:29.538Z,35.42
2018-08-09T09:06:39.674Z,35.39
2018-08-09T09:07:49.788Z,35.47
2018-08-09T09:08:59.875Z,35.45
2018-08-09T09:10:09.961Z,35.52
2018-08-09T09:11:19.811Z,35.46
2018-08-09T09:12:29.896Z,35.34
2018-08-09T09:13:39.787Z,35.35
2018-08-09T09:14:49.733Z,35.4
2018-08-09T09:15:59.549Z,35.33
2018-08-09T09:17:09.376Z,35.42
2018-08-09T09:18:19.277Z,35.42
2018-08-09T09:19:29.392Z,35.49
2018-08-09T09:20:39.483Z,35.58
2018-08-09T09:21:49.587Z,35.65
2018-08-09T09:22:59.669Z,35.69
2018-08-09T09:24:09.777Z,35.76
2018-08-09T09:25:19.874Z,35.82
2018-08-09T09:26:30.002Z,35.87
2018-08-09T09:27:40.089Z,35.95
2018-08-09T09:28:49.917Z,35.98
2018-08-09T09:30:00.072Z,35.94
2018-08-09T09:31:10.180Z,36.17
2018-08-09T09:32:20.281Z,36.09
2018-08-09T09:33:30.379Z,36.12
2018-08-09T09:34:40.212Z,36.22
2018-08-09T09:35:50.081Z,36.22
2018-08-09T09:37:00.177Z,36.32
2018-08-09T09:38:10.016Z,36.33
2018-08-09T09:39:20.080Z,36.41
2018-08-09T09:40:30.205Z,36.4
2018-08-09T09:41:40.084Z,36.41
2018-08-09T09:42:50.187Z,36.43
2018-08-09T09:44:00.328Z,36.51
2018-08-09T09:45:09.907Z,36.51
2018-08-09T09:46:19.742Z,36.49
2018-08-09T09:47:29.840Z,36.52
2018-08-09T09:48:39.958Z,36.53
2018-08-09T09:49:50.292Z,36.53
2018-08-09T09:51:00.427Z,36.52
2018-08-09T09:52:10.260Z,36.52
2018-08-09T09:53:20.079Z,36.61
2018-08-09T09:54:30.180Z,36.59
2018-08-09T09:55:40.263Z,36.56
2018-08-09T09:56:50.361Z,36.74
2018-08-09T09:58:00.459Z,36.62
2018-08-09T09:59:10.475Z,36.73
2018-08-09T10:00:20.555Z,36.77
2018-08-09T10:01:30.637Z,36.84
2018-08-09T10:02:40.758Z,36.84
2018-08-09T10:03:50.864Z,36.97
2018-08-09T10:05:00.969Z,37.08
2018-08-09T10:06:11.080Z,37.18
2018-08-09T10:07:21.443Z,37.18
2018-08-09T10:08:31.714Z,37.33
2018-08-09T10:09:41.829Z,37.29
2018-08-09T10:10:51.676Z,37.36
2018-08-09T10:12:01.749Z,37.39
2018-08-09T10:13:11.852Z,37.42
2018-08-09T10:14:21.952Z,37.48
2018-08-09T10:15:32.068Z,37.56
2018-08-09T10:16:42.165Z,37.48
2018-08-09T10:17:52.247Z,37.51
2018-08-09T10:19:02.330Z,37.49
2018-08-09T10:20:12.413Z,37.45
2018-08-09T10:21:22.510Z,37.64
2018-08-09T10:22:32.769Z,37.56
2018-08-09T10:23:42.851Z,37.69
2018-08-09T10:24:52.670Z,37.69
2018-08-09T10:26:02.852Z,37.75
2018-08-09T10:27:12.935Z,37.68
2018-08-09T10:28:23.014Z,37.68
2018-08-09T10:29:33.104Z,37.81
2018-08-09T10:30:43.187Z,37.81
2018-08-09T10:31:53.301Z,37.9
2018-08-09T10:33:03.402Z,37.99
2018-08-09T10:34:13.502Z,38.02
2018-08-09T10:35:23.415Z,38.15
2018-08-09T10:36:33.291Z,38.09
2018-08-09T10:37:43.375Z,38.21
2018-08-09T10:38:53.458Z,38.33
2018-08-09T10:40:03.278Z,38.46
2018-08-09T10:41:13.376Z,38.55
2018-08-09T10:42:23.193Z,38.58
2018-08-09T10:43:33.256Z,38.58
2018-08-09T10:44:43.350Z,38.61
2018-08-09T10:45:53.500Z,38.55
2018-08-09T10:47:03.330Z,38.46
2018-08-09T10:48:13.443Z,38.49
2018-08-09T10:49:23.531Z,38.55
2018-08-09T10:50:33.630Z,38.58
2018-08-09T10:51:43.483Z,38.61
2018-08-09T10:52:53.579Z,38.62
2018-08-09T10:54:03.675Z,38.74
2018-08-09T10:55:13.773Z,38.7
2018-08-09T10:56:23.885Z,38.76
2018-08-09T10:57:34.047Z,38.84
2018-08-09T10:58:44.136Z,38.84
2018-08-09T10:59:54.220Z,38.84
2018-08-09T11:01:04.036Z,38.92
2018-08-09T11:02:13.872Z,38.85
2018-08-09T11:03:23.703Z,38.89
2018-08-09T11:04:33.805Z,38.97
2018-08-09T11:05:43.384Z,39.11
2018-08-09T11:06:53.485Z,39.13
2018-08-09T11:08:03.556Z,39.13
2018-08-09T11:09:13.131Z,39.25
2018-08-09T11:10:22.965Z,39.23
2018-08-09T11:11:33.051Z,39.13
2018-08-09T11:12:42.863Z,39.18
2018-08-09T11:13:52.952Z,39.16
2018-08-09T11:15:03.241Z,39.27
2018-08-09T11:16:13.450Z,39.27
2018-08-09T11:17:23.559Z,39.27
2018-08-09T11:18:33.757Z,39.3
2018-08-09T11:19:43.601Z,39.3
2018-08-09T11:20:53.150Z,39.35
2018-08-09T11:22:03.017Z,39.35
2018-08-09T11:23:13.108Z,39.42
2018-08-09T11:24:23.219Z,39.47
2018-08-09T11:25:33.312Z,39.5
2018-08-09T11:26:43.399Z,39.56
2018-08-09T11:27:53.238Z,39.64
2018-08-09T11:29:03.328Z,39.69
2018-08-09T11:30:13.389Z,39.74
2018-08-09T11:31:23.481Z,39.79
2018-08-09T11:32:33.625Z,39.86
2018-08-09T11:33:43.189Z,39.93
2018-08-09T11:34:53.282Z,39.96
2018-08-09T11:36:03.357Z,39.93
2018-08-09T11:37:13.183Z,39.93
2018-08-09T11:38:23.329Z,39.99
2018-08-09T11:39:33.170Z,40.02
2018-08-09T11:40:43.249Z,40.05
2018-08-09T11:41:53.367Z,40.09
2018-08-09T11:43:03.286Z,40.1
2018-08-09T11:44:13.595Z,40.09
2018-08-09T11:45:23.705Z,40.12
2018-08-09T11:46:33.796Z,40.08
2018-08-09T11:47:43.864Z,40.12
2018-08-09T11:48:53.927Z,40.13
2018-08-09T11:50:03.757Z,40.13
2018-08-09T11:51:13.829Z,40.1
2018-08-09T11:52:23.934Z,39.94
2018-08-09T11:53:33.999Z,39.99
2018-08-09T11:54:43.832Z,40.02
2018-08-09T11:55:53.937Z,40.05
2018-08-09T11:57:04.293Z,40.02
2018-08-09T11:58:14.571Z,39.96
2018-08-09T11:59:24.691Z,40.09
2018-08-09T12:00:34.534Z,40.05
2018-08-09T12:01:44.888Z,40.03
2018-08-09T12:02:55.188Z,40.08
2018-08-09T12:04:05.272Z,40.09
2018-08-09T12:05:15.376Z,40.16
2018-08-09T12:06:25.485Z,40.01
2018-08-09T12:07:35.577Z,40.15
2018-08-09T12:08:45.656Z,40.15
2018-08-09T12:09:55.801Z,40.08
2018-08-09T12:11:05.909Z,40.13
2018-08-09T12:12:16.013Z,40.06
2018-08-09T12:13:26.175Z,40.08
2018-08-09T12:14:36.437Z,40.09
2018-08-09T12:15:46.305Z,40.1
2018-08-09T12:16:56.409Z,40.08
2018-08-09T12:18:06.510Z,40.01
2018-08-09T12:19:16.618Z,40.05
2018-08-09T12:20:26.696Z,40.09
2018-08-09T12:21:36.789Z,40.08
2018-08-09T12:22:46.631Z,40.21
2018-08-09T12:23:56.706Z,40.27
2018-08-09T12:25:06.273Z,40.45
2018-08-09T12:26:16.123Z,40.38
2018-08-09T12:27:25.680Z,40.36
2018-08-09T12:28:35.758Z,40.3
2018-08-09T12:29:45.620Z,40.34
2018-08-09T12:30:55.715Z,40.43
2018-08-09T12:32:05.820Z,40.38
2018-08-09T12:33:15.744Z,40.47
2018-08-09T12:34:25.729Z,40.48
2018-08-09T12:35:35.286Z,40.5
2018-08-09T12:36:45.519Z,40.51
2018-08-09T12:37:55.796Z,40.48
2018-08-09T12:39:05.894Z,40.45
2018-08-09T12:40:15.987Z,40.32
2018-08-09T12:41:25.814Z,40.41
2018-08-09T12:42:35.885Z,40.48
2018-08-09T12:43:45.718Z,40.44
2018-08-09T12:44:55.804Z,40.47
2018-08-09T12:46:05.642Z,40.41
2018-08-09T12:47:15.727Z,40.47
2018-08-09T12:48:25.829Z,40.5
2018-08-09T12:49:35.960Z,40.57
2018-08-09T12:50:46.199Z,40.5
2018-08-09T12:51:56.552Z,40.62
2018-08-09T12:53:06.644Z,40.67
2018-08-09T12:54:16.465Z,40.66
2018-08-09T12:55:26.572Z,40.69
2018-08-09T12:56:36.688Z,40.59
2018-08-09T12:57:46.788Z,40.69
2018-08-09T12:58:56.892Z,40.45
2018-08-09T13:00:07.382Z,40.44
2018-08-09T13:01:17.921Z,40.41
2018-08-09T13:02:28.033Z,40.08
2018-08-09T13:03:38.130Z,39.71
2018-08-09T13:04:47.980Z,39.76
2018-08-09T13:05:58.167Z,40.03
2018-08-09T13:07:08.261Z,40.01
2018-08-09T13:08:18.391Z,39.83
2018-08-09T13:09:28.664Z,39.99
2018-08-09T13:10:38.780Z,40.2
2018-08-09T13:11:48.883Z,40.48
2018-08-09T13:12:58.983Z,40.54
2018-08-09T13:14:09.084Z,40.41
2018-08-09T13:15:18.653Z,40.65
2018-08-09T13:16:28.220Z,40.79
2018-08-09T13:17:38.309Z,40.86
2018-08-09T13:18:48.407Z,40.81
2018-08-09T13:19:58.496Z,40.79
2018-08-09T13:21:08.069Z,40.7
2018-08-09T13:22:18.161Z,40.66
2018-08-09T13:23:28.676Z,40.66
2018-08-09T13:24:38.369Z,40.75
2018-08-09T13:25:48.463Z,40.66
2018-08-09T13:26:58.549Z,40.79
2018-08-09T13:28:08.639Z,40.91
2018-08-09T13:29:18.447Z,41.07
2018-08-09T13:30:28.595Z,41.2
2018-08-09T13:31:38.670Z,41.26
2018-08-09T13:32:48.765Z,41.23
2018-08-09T13:33:58.854Z,41.2
2018-08-09T13:35:08.940Z,41.11
2018-08-09T13:36:19.072Z,40.98
2018-08-09T13:37:29.147Z,40.91
2018-08-09T13:38:38.957Z,40.93
2018-08-09T13:39:49.039Z,40.86
2018-08-09T13:40:59.124Z,40.82
2018-08-09T13:42:08.943Z,40.72
2018-08-09T13:43:18.892Z,40.93
2018-08-09T13:44:29.162Z,40.81
2018-08-09T13:45:39.257Z,40.88
2018-08-09T13:46:49.397Z,40.89
2018-08-09T13:47:59.525Z,40.88
2018-08-09T13:49:09.630Z,40.88
2018-08-09T13:50:19.729Z,40.84
2018-08-09T13:51:29.969Z,40.51
2018-08-09T13:52:40.296Z,40.31
2018-08-09T13:53:50.564Z,40.36
2018-08-09T13:55:00.662Z,40.22
2018-08-09T13:56:10.771Z,40.31
2018-08-09T13:57:20.864Z,40.52
2018-08-09T13:58:30.898Z,40.69
2018-08-09T13:59:41.164Z,40.86
2018-08-09T14:00:51.269Z,40.75
2018-08-09T14:02:01.105Z,40.81
2018-08-09T14:03:10.946Z,40.82
2018-08-09T14:04:21.047Z,40.88
2018-08-09T14:05:31.137Z,40.96
2018-08-09T14:06:40.977Z,40.94
2018-08-09T14:07:51.086Z,40.89
2018-08-09T14:09:01.198Z,41
2018-08-09T14:10:11.013Z,41.03
2018-08-09T14:11:21.108Z,41.15
2018-08-09T14:12:30.935Z,41.2
2018-08-09T14:13:41.094Z,41.3
2018-08-09T14:14:51.175Z,41.35
2018-08-09T14:16:01.020Z,41.26
2018-08-09T14:17:10.646Z,41.19
2018-08-09T14:18:20.487Z,41.06
2018-08-09T14:19:30.342Z,40.86
2018-08-09T14:20:40.438Z,40.91
2018-08-09T14:21:50.541Z,40.89
2018-08-09T14:23:00.377Z,40.89
2018-08-09T14:24:10.526Z,40.86
2018-08-09T14:25:20.620Z,40.77
2018-08-09T14:26:30.453Z,40.78
2018-08-09T14:27:40.552Z,40.79
2018-08-09T14:28:50.642Z,40.93
2018-08-09T14:30:00.744Z,40.94
2018-08-09T14:31:10.845Z,40.91
2018-08-09T14:32:20.951Z,40.94
2018-08-09T14:33:31.047Z,40.98
2018-08-09T14:34:40.889Z,40.93
2018-08-09T14:35:50.985Z,40.89
2018-08-09T14:37:01.096Z,40.94
2018-08-09T14:38:10.959Z,41.03
2018-08-09T14:39:21.076Z,41.04
2018-08-09T14:40:30.929Z,41.01
2018-08-09T14:41:41.053Z,41.07
2018-08-09T14:42:51.176Z,41.06
2018-08-09T14:44:00.484Z,41.11
2018-08-09T14:45:10.564Z,41.01
2018-08-09T14:46:20.661Z,40.96
2018-08-09T14:47:30.484Z,40.94
2018-08-09T14:48:40.381Z,40.97
2018-08-09T14:49:50.630Z,40.79
2018-08-09T14:51:00.749Z,40.75
2018-08-09T14:52:10.837Z,40.82
2018-08-09T14:53:20.944Z,40.48
2018-08-09T14:54:31.052Z,40.32
2018-08-09T14:55:41.143Z,40.15
2018-08-09T14:56:51.237Z,40.02
2018-08-09T14:58:01.358Z,39.99
2018-08-09T14:59:11.466Z,39.79
2018-08-09T15:00:21.581Z,39.64
2018-08-09T15:01:31.719Z,39.65
2018-08-09T15:02:41.802Z,39.68
2018-08-09T15:03:51.914Z,39.67
2018-08-09T15:05:01.989Z,39.52
2018-08-09T15:06:11.843Z,39.22
2018-08-09T15:07:21.927Z,39
2018-08-09T15:08:32.010Z,38.77
2018-08-09T15:09:42.095Z,38.55
2018-08-09T15:10:52.214Z,38.55
2018-08-09T15:12:02.328Z,38.55
2018-08-09T15:13:12.169Z,38.44
2018-08-09T15:14:22.265Z,38.3
2018-08-09T15:15:32.416Z,38.24
2018-08-09T15:16:42.558Z,38.17
2018-08-09T15:17:52.658Z,38.18
2018-08-09T15:19:02.762Z,38.37
2018-08-09T15:20:12.852Z,38.52
2018-08-09T15:21:22.422Z,38.46
2018-08-09T15:22:32.583Z,38.42
2018-08-09T15:23:42.553Z,38.4
2018-08-09T15:24:52.463Z,38.42
2018-08-09T15:26:02.571Z,38.4
2018-08-09T15:27:12.418Z,38.43
2018-08-09T15:28:22.517Z,38.25
2018-08-09T15:29:32.630Z,38.22
2018-08-09T15:30:42.724Z,38.22
2018-08-09T15:31:52.559Z,38.22
2018-08-09T15:33:02.663Z,38.18
2018-08-09T15:34:12.478Z,38.36
2018-08-09T15:35:22.334Z,38.37
2018-08-09T15:36:32.425Z,38.44
2018-08-09T15:37:42.505Z,38.52